This is the latest recevied weather packets stored in our database for station/object HA5CD-6. If no packets are shown the sender has not sent any weather packets the latest 10 day(s).
| Time | Temp. | Humidity | Pressure | Rain* | Wind** | Luminosity | Snow |
|---|---|---|---|---|---|---|---|
| 1777574464 | 9.44° C | 36% | 1003 hPa | - | - | - | - |
| 1777573864 | 9.44° C | 37% | 1003 hPa | - | - | - | - |
| 1777573264 | 9.44° C | 38% | 1003 hPa | - | - | - | - |
| 1777572664 | 10° C | 37% | 1003 hPa | - | - | - | - |
| 1777572064 | 10.56° C | 34% | 1003 hPa | - | - | - | - |
| 1777571463 | 11.67° C | 30% | 1003 hPa | - | - | - | - |
| 1777570863 | 12.78° C | 27% | 1003 hPa | - | - | - | - |
| 1777570263 | 13.33° C | 26% | 1002 hPa | - | - | - | - |
| 1777569663 | 15.56° C | 22% | 1002 hPa | - | - | - | - |
| 1777569063 | 17.22° C | 21% | 1002 hPa | - | - | - | - |
| 1777568463 | 17.22° C | 21% | 1002 hPa | - | - | - | - |
| 1777567863 | 18.89° C | 19% | 1002 hPa | - | - | - | - |
| 1777567263 | 19.44° C | 19% | 1002 hPa | - | - | - | - |
| 1777566662 | 15° C | 23% | 1002 hPa | - | - | - | - |
| 1777566062 | 17.78° C | 20% | 1002 hPa | - | - | - | - |
| 1777565462 | 18.89° C | 19% | 1002 hPa | - | - | - | - |
| 1777564862 | 18.89° C | 18% | 1002 hPa | - | - | - | - |
| 1777564262 | 18.89° C | 19% | 1002 hPa | - | - | - | - |
| 1777563662 | 18.33° C | 19% | 1002 hPa | - | - | - | - |
| 1777563062 | 20° C | 18% | 1002 hPa | - | - | - | - |
| 1777562461 | 19.44° C | 17% | 1002 hPa | - | - | - | - |
| 1777561861 | 21.11° C | 16% | 1002 hPa | - | - | - | - |
| 1777561261 | 20.56° C | 17% | 1002 hPa | - | - | - | - |
| 1777560661 | 20.56° C | 17% | 1002 hPa | - | - | - | - |
| 1777560061 | 20° C | 17% | 1002 hPa | - | - | - | - |
* Rain since midnight (hover to see other rain measurements)
** Current wind speed in m/s (hover to see current wind gust speed)